sensor_id;sensor_type;location;lat;lon;timestamp;temperature;humidity
74901;DHT22;63461;51.416;6.758;2023-07-13T00:00:42;19.20;99.90
74901;DHT22;63461;51.416;6.758;2023-07-13T00:03:08;19.10;99.90
74901;DHT22;63461;51.416;6.758;2023-07-13T00:05:34;19.10;99.90
74901;DHT22;63461;51.416;6.758;2023-07-13T00:08:00;19.10;99.90
74901;DHT22;63461;51.416;6.758;2023-07-13T00:10:26;19.10;99.90
74901;DHT22;63461;51.416;6.758;2023-07-13T00:12:52;19.10;99.90
74901;DHT22;63461;51.416;6.758;2023-07-13T00:15:24;19.10;99.90
74901;DHT22;63461;51.416;6.758;2023-07-13T00:17:52;19.00;99.90
74901;DHT22;63461;51.416;6.758;2023-07-13T00:20:19;19.10;99.90
74901;DHT22;63461;51.416;6.758;2023-07-13T00:22:47;19.00;99.90
74901;DHT22;63461;51.416;6.758;2023-07-13T00:25:13;19.10;99.90
74901;DHT22;63461;51.416;6.758;2023-07-13T00:27:39;19.00;99.90
74901;DHT22;63461;51.416;6.758;2023-07-13T00:42:17;18.90;99.90
74901;DHT22;63461;51.416;6.758;2023-07-13T00:48:02;18.80;99.90
74901;DHT22;63461;51.416;6.758;2023-07-13T00:50:56;18.80;99.90
74901;DHT22;63461;51.416;6.758;2023-07-13T00:53:50;18.80;99.90
74901;DHT22;63461;51.416;6.758;2023-07-13T00:56:43;18.70;99.90
74901;DHT22;63461;51.416;6.758;2023-07-13T01:00:03;18.70;99.90
74901;DHT22;63461;51.416;6.758;2023-07-13T01:03:24;18.80;99.90
74901;DHT22;63461;51.416;6.758;2023-07-13T01:06:40;18.70;99.90
74901;DHT22;63461;51.416;6.758;2023-07-13T01:09:59;18.70;99.90
74901;DHT22;63461;51.416;6.758;2023-07-13T01:13:15;18.70;99.90
74901;DHT22;63461;51.416;6.758;2023-07-13T01:16:33;18.70;99.90
74901;DHT22;63461;51.416;6.758;2023-07-13T01:19:49;18.70;99.90
74901;DHT22;63461;51.416;6.758;2023-07-13T01:23:06;18.60;99.90
74901;DHT22;63461;51.416;6.758;2023-07-13T01:26:23;18.50;99.90
74901;DHT22;63461;51.416;6.758;2023-07-13T01:29:42;18.60;99.90
74901;DHT22;63461;51.416;6.758;2023-07-13T01:32:59;18.50;99.90
74901;DHT22;63461;51.416;6.758;2023-07-13T01:36:15;18.50;99.90
74901;DHT22;63461;51.416;6.758;2023-07-13T01:39:31;18.40;99.90
74901;DHT22;63461;51.416;6.758;2023-07-13T01:42:48;18.40;99.90
74901;DHT22;63461;51.416;6.758;2023-07-13T01:46:04;18.40;99.90
74901;DHT22;63461;51.416;6.758;2023-07-13T01:49:20;18.40;99.90
74901;DHT22;63461;51.416;6.758;2023-07-13T01:52:36;18.50;99.90
74901;DHT22;63461;51.416;6.758;2023-07-13T01:55:52;18.30;99.90
74901;DHT22;63461;51.416;6.758;2023-07-13T01:59:08;18.30;99.90
74901;DHT22;63461;51.416;6.758;2023-07-13T02:02:24;18.30;99.90
74901;DHT22;63461;51.416;6.758;2023-07-13T02:05:40;18.30;99.90
74901;DHT22;63461;51.416;6.758;2023-07-13T02:08:57;18.20;99.90
74901;DHT22;63461;51.416;6.758;2023-07-13T02:12:14;18.30;99.90
74901;DHT22;63461;51.416;6.758;2023-07-13T02:15:30;18.30;99.90
74901;DHT22;63461;51.416;6.758;2023-07-13T02:18:46;18.30;99.90
74901;DHT22;63461;51.416;6.758;2023-07-13T02:22:02;18.20;99.90
74901;DHT22;63461;51.416;6.758;2023-07-13T02:25:18;18.20;99.90
74901;DHT22;63461;51.416;6.758;2023-07-13T02:28:34;18.00;99.90
74901;DHT22;63461;51.416;6.758;2023-07-13T02:31:50;18.00;99.90
74901;DHT22;63461;51.416;6.758;2023-07-13T02:35:06;18.10;99.90
74901;DHT22;63461;51.416;6.758;2023-07-13T02:38:23;18.00;99.90
74901;DHT22;63461;51.416;6.758;2023-07-13T02:41:39;18.00;99.90
74901;DHT22;63461;51.416;6.758;2023-07-13T02:44:55;18.00;99.90
74901;DHT22;63461;51.416;6.758;2023-07-13T02:48:13;18.00;99.90
74901;DHT22;63461;51.416;6.758;2023-07-13T02:51:29;18.00;99.90
74901;DHT22;63461;51.416;6.758;2023-07-13T02:54:45;17.90;99.90
74901;DHT22;63461;51.416;6.758;2023-07-13T02:58:01;17.80;99.90
74901;DHT22;63461;51.416;6.758;2023-07-13T03:01:17;17.90;99.90
74901;DHT22;63461;51.416;6.758;2023-07-13T08:43:52;21.10;99.90
74901;DHT22;63461;51.416;6.758;2023-07-13T08:46:26;21.30;99.90
74901;DHT22;63461;51.416;6.758;2023-07-13T08:48:59;21.00;99.90
74901;DHT22;63461;51.416;6.758;2023-07-13T08:51:31;20.70;99.90
74901;DHT22;63461;51.416;6.758;2023-07-13T08:54:05;20.80;99.90
74901;DHT22;63461;51.416;6.758;2023-07-13T08:56:34;21.00;99.90
74901;DHT22;63461;51.416;6.758;2023-07-13T08:59:27;21.20;99.90
74901;DHT22;63461;51.416;6.758;2023-07-13T09:04:54;21.20;99.90
74901;DHT22;63461;51.416;6.758;2023-07-13T09:10:26;21.40;99.90
74901;DHT22;63461;51.416;6.758;2023-07-13T09:15:32;21.50;99.90
74901;DHT22;63461;51.416;6.758;2023-07-13T09:18:07;21.40;99.90
74901;DHT22;63461;51.416;6.758;2023-07-13T09:20:49;21.40;99.90
74901;DHT22;63461;51.416;6.758;2023-07-13T09:23:19;21.40;99.90
74901;DHT22;63461;51.416;6.758;2023-07-13T09:25:48;21.40;99.90
74901;DHT22;63461;51.416;6.758;2023-07-13T09:28:28;21.50;99.90
74901;DHT22;63461;51.416;6.758;2023-07-13T09:31:17;21.60;99.90
74901;DHT22;63461;51.416;6.758;2023-07-13T09:33:44;21.70;99.90
74901;DHT22;63461;51.416;6.758;2023-07-13T09:36:31;21.50;99.90
74901;DHT22;63461;51.416;6.758;2023-07-13T09:39:04;21.20;99.90
74901;DHT22;63461;51.416;6.758;2023-07-13T09:41:54;21.50;99.90
74901;DHT22;63461;51.416;6.758;2023-07-13T09:44:35;21.70;99.90
74901;DHT22;63461;51.416;6.758;2023-07-13T09:47:01;21.50;99.90
74901;DHT22;63461;51.416;6.758;2023-07-13T09:49:35;21.30;99.90
74901;DHT22;63461;51.416;6.758;2023-07-13T09:52:11;21.30;99.90
74901;DHT22;63461;51.416;6.758;2023-07-13T09:54:37;21.50;99.90
74901;DHT22;63461;51.416;6.758;2023-07-13T09:57:12;21.20;99.90
74901;DHT22;63461;51.416;6.758;2023-07-13T09:59:42;21.20;99.90
74901;DHT22;63461;51.416;6.758;2023-07-13T10:02:30;21.30;99.90
74901;DHT22;63461;51.416;6.758;2023-07-13T10:05:00;21.60;99.90
74901;DHT22;63461;51.416;6.758;2023-07-13T10:07:26;21.80;99.90
74901;DHT22;63461;51.416;6.758;2023-07-13T10:09:56;21.80;99.90
74901;DHT22;63461;51.416;6.758;2023-07-13T10:12:23;21.70;99.90
74901;DHT22;63461;51.416;6.758;2023-07-13T10:14:52;21.80;99.90
74901;DHT22;63461;51.416;6.758;2023-07-13T10:17:31;22.20;99.90
74901;DHT22;63461;51.416;6.758;2023-07-13T10:20:05;22.10;99.90
74901;DHT22;63461;51.416;6.758;2023-07-13T10:22:47;22.00;99.90
74901;DHT22;63461;51.416;6.758;2023-07-13T10:25:26;21.90;99.90
74901;DHT22;63461;51.416;6.758;2023-07-13T10:30:51;21.80;99.90
74901;DHT22;63461;51.416;6.758;2023-07-13T10:33:18;21.90;99.90
74901;DHT22;63461;51.416;6.758;2023-07-13T10:35:44;21.90;99.90
74901;DHT22;63461;51.416;6.758;2023-07-13T10:38:18;21.90;99.90
74901;DHT22;63461;51.416;6.758;2023-07-13T10:41:01;22.10;99.90
74901;DHT22;63461;51.416;6.758;2023-07-13T10:46:00;22.20;99.90
74901;DHT22;63461;51.416;6.758;2023-07-13T10:48:27;22.30;99.90
74901;DHT22;63461;51.416;6.758;2023-07-13T10:50:55;22.40;99.90
74901;DHT22;63461;51.416;6.758;2023-07-13T10:53:31;22.30;99.90
74901;DHT22;63461;51.416;6.758;2023-07-13T10:56:02;22.10;99.90
74901;DHT22;63461;51.416;6.758;2023-07-13T10:58:38;22.10;99.90
74901;DHT22;63461;51.416;6.758;2023-07-13T11:01:16;22.10;99.90
74901;DHT22;63461;51.416;6.758;2023-07-13T11:04:00;22.00;99.90
74901;DHT22;63461;51.416;6.758;2023-07-13T11:11:43;22.20;99.90
74901;DHT22;63461;51.416;6.758;2023-07-13T11:16:52;22.20;99.90
74901;DHT22;63461;51.416;6.758;2023-07-13T11:25:29;22.20;99.90
74901;DHT22;63461;51.416;6.758;2023-07-13T11:33:16;22.20;99.90
74901;DHT22;63461;51.416;6.758;2023-07-13T11:38:20;22.30;99.90
74901;DHT22;63461;51.416;6.758;2023-07-13T11:40:48;22.30;99.90
74901;DHT22;63461;51.416;6.758;2023-07-13T11:43:15;22.30;99.90
74901;DHT22;63461;51.416;6.758;2023-07-13T11:45:42;22.10;99.90
74901;DHT22;63461;51.416;6.758;2023-07-13T11:48:38;22.20;99.90
74901;DHT22;63461;51.416;6.758;2023-07-13T11:51:04;22.40;99.90
74901;DHT22;63461;51.416;6.758;2023-07-13T11:53:44;22.50;99.90
74901;DHT22;63461;51.416;6.758;2023-07-13T11:56:11;22.60;99.90
74901;DHT22;63461;51.416;6.758;2023-07-13T11:58:36;22.70;99.90
74901;DHT22;63461;51.416;6.758;2023-07-13T12:01:03;22.90;99.90
74901;DHT22;63461;51.416;6.758;2023-07-13T12:03:33;22.90;99.90
74901;DHT22;63461;51.416;6.758;2023-07-13T12:06:02;22.70;99.90
74901;DHT22;63461;51.416;6.758;2023-07-13T12:08:31;22.80;99.90
74901;DHT22;63461;51.416;6.758;2023-07-13T12:11:05;23.00;99.90
74901;DHT22;63461;51.416;6.758;2023-07-13T12:13:37;23.10;99.90
74901;DHT22;63461;51.416;6.758;2023-07-13T12:16:27;23.10;99.90
74901;DHT22;63461;51.416;6.758;2023-07-13T12:18:55;23.20;99.90
74901;DHT22;63461;51.416;6.758;2023-07-13T12:21:28;23.30;99.90
74901;DHT22;63461;51.416;6.758;2023-07-13T12:23:55;23.10;99.90
74901;DHT22;63461;51.416;6.758;2023-07-13T12:26:21;23.10;99.90
74901;DHT22;63461;51.416;6.758;2023-07-13T12:28:54;23.10;99.90
74901;DHT22;63461;51.416;6.758;2023-07-13T12:32:54;22.90;99.90
74901;DHT22;63461;51.416;6.758;2023-07-13T12:35:16;22.80;99.90
74901;DHT22;63461;51.416;6.758;2023-07-13T12:37:51;22.70;99.90
74901;DHT22;63461;51.416;6.758;2023-07-13T12:40:21;22.50;99.90
74901;DHT22;63461;51.416;6.758;2023-07-13T12:43:03;22.50;99.90
74901;DHT22;63461;51.416;6.758;2023-07-13T12:46:21;22.40;99.90
74901;DHT22;63461;51.416;6.758;2023-07-13T12:49:13;22.30;99.90
74901;DHT22;63461;51.416;6.758;2023-07-13T12:51:50;22.20;99.90
74901;DHT22;63461;51.416;6.758;2023-07-13T12:54:20;22.20;99.90
74901;DHT22;63461;51.416;6.758;2023-07-13T12:56:50;22.20;99.90
74901;DHT22;63461;51.416;6.758;2023-07-13T12:59:20;22.20;99.90
74901;DHT22;63461;51.416;6.758;2023-07-13T13:01:48;22.10;99.90
74901;DHT22;63461;51.416;6.758;2023-07-13T13:04:15;22.00;99.90
74901;DHT22;63461;51.416;6.758;2023-07-13T13:06:41;22.10;99.90
74901;DHT22;63461;51.416;6.758;2023-07-13T13:09:13;22.10;99.90
74901;DHT22;63461;51.416;6.758;2023-07-13T13:11:40;22.20;99.90
74901;DHT22;63461;51.416;6.758;2023-07-13T13:14:07;22.30;99.90
74901;DHT22;63461;51.416;6.758;2023-07-13T13:16:35;22.50;99.90
74901;DHT22;63461;51.416;6.758;2023-07-13T13:19:17;22.70;99.90
74901;DHT22;63461;51.416;6.758;2023-07-13T13:21:45;23.20;99.90
74901;DHT22;63461;51.416;6.758;2023-07-13T13:24:17;23.40;99.90
74901;DHT22;63461;51.416;6.758;2023-07-13T13:26:44;23.60;99.90
74901;DHT22;63461;51.416;6.758;2023-07-13T13:29:15;23.80;99.90
74901;DHT22;63461;51.416;6.758;2023-07-13T13:31:42;23.60;99.90
74901;DHT22;63461;51.416;6.758;2023-07-13T13:34:11;23.60;99.90
74901;DHT22;63461;51.416;6.758;2023-07-13T13:36:37;23.50;99.90
74901;DHT22;63461;51.416;6.758;2023-07-13T13:41:49;23.50;99.90
74901;DHT22;63461;51.416;6.758;2023-07-13T13:44:16;23.30;99.90
74901;DHT22;63461;51.416;6.758;2023-07-13T13:46:44;23.30;99.90
74901;DHT22;63461;51.416;6.758;2023-07-13T13:49:16;23.30;99.90
74901;DHT22;63461;51.416;6.758;2023-07-13T13:51:43;23.50;99.90
74901;DHT22;63461;51.416;6.758;2023-07-13T13:54:13;23.60;99.90
74901;DHT22;63461;51.416;6.758;2023-07-13T13:56:44;23.70;99.90
74901;DHT22;63461;51.416;6.758;2023-07-13T13:59:10;23.80;99.90
74901;DHT22;63461;51.416;6.758;2023-07-13T14:01:37;23.80;99.90
74901;DHT22;63461;51.416;6.758;2023-07-13T14:04:03;23.80;99.90
74901;DHT22;63461;51.416;6.758;2023-07-13T14:06:31;23.90;99.90
74901;DHT22;63461;51.416;6.758;2023-07-13T14:08:57;23.80;99.90
74901;DHT22;63461;51.416;6.758;2023-07-13T14:11:22;23.50;99.90
74901;DHT22;63461;51.416;6.758;2023-07-13T14:13:55;23.40;99.90
74901;DHT22;63461;51.416;6.758;2023-07-13T14:16:24;23.10;99.90
74901;DHT22;63461;51.416;6.758;2023-07-13T14:18:53;22.90;99.90
74901;DHT22;63461;51.416;6.758;2023-07-13T14:21:21;22.90;99.90
74901;DHT22;63461;51.416;6.758;2023-07-13T14:23:48;22.90;99.90
74901;DHT22;63461;51.416;6.758;2023-07-13T14:26:28;22.70;99.90
74901;DHT22;63461;51.416;6.758;2023-07-13T14:28:56;22.60;99.90
74901;DHT22;63461;51.416;6.758;2023-07-13T14:31:25;22.80;99.90
74901;DHT22;63461;51.416;6.758;2023-07-13T14:33:50;22.80;99.90
74901;DHT22;63461;51.416;6.758;2023-07-13T14:36:30;22.90;99.90
74901;DHT22;63461;51.416;6.758;2023-07-13T14:38:57;22.90;99.90
74901;DHT22;63461;51.416;6.758;2023-07-13T14:41:24;22.80;99.90
74901;DHT22;63461;51.416;6.758;2023-07-13T14:43:50;22.90;99.90
74901;DHT22;63461;51.416;6.758;2023-07-13T14:46:29;22.90;99.90
74901;DHT22;63461;51.416;6.758;2023-07-13T14:49:06;22.80;99.90
74901;DHT22;63461;51.416;6.758;2023-07-13T14:51:33;22.80;99.90
74901;DHT22;63461;51.416;6.758;2023-07-13T14:54:04;22.80;99.90
74901;DHT22;63461;51.416;6.758;2023-07-13T14:56:31;22.80;99.90
74901;DHT22;63461;51.416;6.758;2023-07-13T14:58:57;22.80;99.90
74901;DHT22;63461;51.416;6.758;2023-07-13T15:01:23;22.60;99.90
74901;DHT22;63461;51.416;6.758;2023-07-13T15:03:51;22.50;99.90
74901;DHT22;63461;51.416;6.758;2023-07-13T15:06:18;22.60;99.90
74901;DHT22;63461;51.416;6.758;2023-07-13T15:08:45;22.50;99.90
74901;DHT22;63461;51.416;6.758;2023-07-13T15:11:12;22.40;99.90
74901;DHT22;63461;51.416;6.758;2023-07-13T15:13:39;22.20;99.90
74901;DHT22;63461;51.416;6.758;2023-07-13T15:16:13;22.00;99.90
74901;DHT22;63461;51.416;6.758;2023-07-13T15:18:40;21.90;99.90
74901;DHT22;63461;51.416;6.758;2023-07-13T15:21:11;21.90;99.90
74901;DHT22;63461;51.416;6.758;2023-07-13T15:23:40;21.80;99.90
74901;DHT22;63461;51.416;6.758;2023-07-13T15:26:12;21.60;99.90
74901;DHT22;63461;51.416;6.758;2023-07-13T15:28:38;21.70;99.90
74901;DHT22;63461;51.416;6.758;2023-07-13T15:31:19;21.70;99.90
74901;DHT22;63461;51.416;6.758;2023-07-13T15:33:45;21.60;99.90
74901;DHT22;63461;51.416;6.758;2023-07-13T15:36:15;21.40;99.90
74901;DHT22;63461;51.416;6.758;2023-07-13T15:38:43;21.40;99.90
74901;DHT22;63461;51.416;6.758;2023-07-13T15:41:20;21.50;99.90
74901;DHT22;63461;51.416;6.758;2023-07-13T15:43:52;21.60;99.90
74901;DHT22;63461;51.416;6.758;2023-07-13T15:46:20;21.60;99.90
74901;DHT22;63461;51.416;6.758;2023-07-13T15:48:51;21.50;99.90
74901;DHT22;63461;51.416;6.758;2023-07-13T15:51:29;21.50;99.90
74901;DHT22;63461;51.416;6.758;2023-07-13T15:54:01;21.50;99.90
74901;DHT22;63461;51.416;6.758;2023-07-13T15:56:36;21.50;99.90
74901;DHT22;63461;51.416;6.758;2023-07-13T15:59:03;21.30;99.90
74901;DHT22;63461;51.416;6.758;2023-07-13T16:01:30;21.40;99.90
74901;DHT22;63461;51.416;6.758;2023-07-13T16:03:57;21.60;99.90
74901;DHT22;63461;51.416;6.758;2023-07-13T16:06:26;21.40;99.90
74901;DHT22;63461;51.416;6.758;2023-07-13T16:08:53;21.50;99.90
74901;DHT22;63461;51.416;6.758;2023-07-13T16:11:25;21.60;99.90
74901;DHT22;63461;51.416;6.758;2023-07-13T16:13:51;21.60;99.90
74901;DHT22;63461;51.416;6.758;2023-07-13T16:16:22;21.50;99.90
74901;DHT22;63461;51.416;6.758;2023-07-13T16:18:59;21.50;99.90
74901;DHT22;63461;51.416;6.758;2023-07-13T16:21:27;21.70;99.90
74901;DHT22;63461;51.416;6.758;2023-07-13T16:23:55;21.60;99.90
74901;DHT22;63461;51.416;6.758;2023-07-13T16:26:29;21.60;99.90
74901;DHT22;63461;51.416;6.758;2023-07-13T16:29:13;21.60;99.90
74901;DHT22;63461;51.416;6.758;2023-07-13T16:31:39;21.60;99.90
74901;DHT22;63461;51.416;6.758;2023-07-13T16:34:05;21.50;99.90
74901;DHT22;63461;51.416;6.758;2023-07-13T16:36:35;21.70;99.90
74901;DHT22;63461;51.416;6.758;2023-07-13T16:39:00;21.70;99.90
74901;DHT22;63461;51.416;6.758;2023-07-13T16:41:30;21.60;99.90
74901;DHT22;63461;51.416;6.758;2023-07-13T16:43:56;21.70;99.90
74901;DHT22;63461;51.416;6.758;2023-07-13T16:46:22;21.50;99.90
74901;DHT22;63461;51.416;6.758;2023-07-13T16:48:49;21.50;99.90
74901;DHT22;63461;51.416;6.758;2023-07-13T16:51:16;21.70;99.90
74901;DHT22;63461;51.416;6.758;2023-07-13T16:53:41;21.30;99.90
74901;DHT22;63461;51.416;6.758;2023-07-13T16:56:17;21.30;99.90
74901;DHT22;63461;51.416;6.758;2023-07-13T16:58:43;21.50;99.90
74901;DHT22;63461;51.416;6.758;2023-07-13T17:01:09;21.60;99.90
74901;DHT22;63461;51.416;6.758;2023-07-13T17:03:35;21.50;99.90
74901;DHT22;63461;51.416;6.758;2023-07-13T17:06:23;21.50;99.90
74901;DHT22;63461;51.416;6.758;2023-07-13T17:08:50;21.30;99.90
74901;DHT22;63461;51.416;6.758;2023-07-13T17:11:19;21.40;99.90
74901;DHT22;63461;51.416;6.758;2023-07-13T17:13:45;21.30;99.90
74901;DHT22;63461;51.416;6.758;2023-07-13T17:16:11;21.40;99.90
74901;DHT22;63461;51.416;6.758;2023-07-13T17:18:37;21.30;99.90
74901;DHT22;63461;51.416;6.758;2023-07-13T17:21:06;21.50;99.90
74901;DHT22;63461;51.416;6.758;2023-07-13T17:23:33;21.40;99.90
74901;DHT22;63461;51.416;6.758;2023-07-13T17:26:00;21.40;99.90
74901;DHT22;63461;51.416;6.758;2023-07-13T17:28:26;21.50;99.90
74901;DHT22;63461;51.416;6.758;2023-07-13T17:30:55;21.40;99.90
74901;DHT22;63461;51.416;6.758;2023-07-13T17:35:52;21.70;99.90
74901;DHT22;63461;51.416;6.758;2023-07-13T17:38:18;21.80;99.90
74901;DHT22;63461;51.416;6.758;2023-07-13T17:40:45;21.80;99.90
74901;DHT22;63461;51.416;6.758;2023-07-13T17:43:11;21.80;99.90
74901;DHT22;63461;51.416;6.758;2023-07-13T17:45:38;21.90;99.90
74901;DHT22;63461;51.416;6.758;2023-07-13T17:48:09;21.90;99.90
74901;DHT22;63461;51.416;6.758;2023-07-13T17:50:37;21.80;99.90
74901;DHT22;63461;51.416;6.758;2023-07-13T17:53:15;21.70;99.90
74901;DHT22;63461;51.416;6.758;2023-07-13T17:55:41;21.70;99.90
74901;DHT22;63461;51.416;6.758;2023-07-13T17:58:07;21.70;99.90
74901;DHT22;63461;51.416;6.758;2023-07-13T18:00:35;21.60;99.90
74901;DHT22;63461;51.416;6.758;2023-07-13T18:03:12;21.60;99.90
74901;DHT22;63461;51.416;6.758;2023-07-13T18:05:39;21.60;99.90
74901;DHT22;63461;51.416;6.758;2023-07-13T18:08:13;21.60;99.90
74901;DHT22;63461;51.416;6.758;2023-07-13T18:10:43;21.60;99.90
74901;DHT22;63461;51.416;6.758;2023-07-13T18:13:09;21.40;99.90
74901;DHT22;63461;51.416;6.758;2023-07-13T18:15:35;21.40;99.90
74901;DHT22;63461;51.416;6.758;2023-07-13T18:18:01;21.40;99.90
74901;DHT22;63461;51.416;6.758;2023-07-13T18:20:31;21.50;99.90
74901;DHT22;63461;51.416;6.758;2023-07-13T18:23:00;21.50;99.90
74901;DHT22;63461;51.416;6.758;2023-07-13T18:25:28;21.50;99.90
74901;DHT22;63461;51.416;6.758;2023-07-13T18:27:54;21.40;99.90
74901;DHT22;63461;51.416;6.758;2023-07-13T18:30:21;21.40;99.90
74901;DHT22;63461;51.416;6.758;2023-07-13T18:32:50;21.20;99.90
74901;DHT22;63461;51.416;6.758;2023-07-13T18:35:32;21.20;99.90
74901;DHT22;63461;51.416;6.758;2023-07-13T18:37:59;21.20;99.90
74901;DHT22;63461;51.416;6.758;2023-07-13T18:40:26;21.20;99.90
74901;DHT22;63461;51.416;6.758;2023-07-13T18:42:53;21.20;99.90
74901;DHT22;63461;51.416;6.758;2023-07-13T18:45:20;21.10;99.90
74901;DHT22;63461;51.416;6.758;2023-07-13T18:47:50;21.10;99.90
74901;DHT22;63461;51.416;6.758;2023-07-13T18:50:20;21.00;99.90
74901;DHT22;63461;51.416;6.758;2023-07-13T18:52:48;21.10;99.90
74901;DHT22;63461;51.416;6.758;2023-07-13T18:55:21;21.00;99.90
74901;DHT22;63461;51.416;6.758;2023-07-13T18:57:50;21.10;99.90
74901;DHT22;63461;51.416;6.758;2023-07-13T19:00:25;21.10;99.90
74901;DHT22;63461;51.416;6.758;2023-07-13T19:02:58;21.00;99.90
74901;DHT22;63461;51.416;6.758;2023-07-13T19:05:31;21.00;99.90
74901;DHT22;63461;51.416;6.758;2023-07-13T19:07:59;21.00;99.90
74901;DHT22;63461;51.416;6.758;2023-07-13T19:10:26;20.90;99.90
74901;DHT22;63461;51.416;6.758;2023-07-13T19:12:57;20.90;99.90
74901;DHT22;63461;51.416;6.758;2023-07-13T19:15:28;20.80;99.90
74901;DHT22;63461;51.416;6.758;2023-07-13T19:18:00;20.80;99.90
74901;DHT22;63461;51.416;6.758;2023-07-13T19:20:27;20.70;99.90
74901;DHT22;63461;51.416;6.758;2023-07-13T19:25:45;20.60;99.90
74901;DHT22;63461;51.416;6.758;2023-07-13T19:28:32;20.60;99.90
74901;DHT22;63461;51.416;6.758;2023-07-13T19:31:19;20.50;99.90
74901;DHT22;63461;51.416;6.758;2023-07-13T19:34:04;20.60;99.90
74901;DHT22;63461;51.416;6.758;2023-07-13T19:36:31;20.60;99.90
74901;DHT22;63461;51.416;6.758;2023-07-13T19:38:59;20.40;99.90
74901;DHT22;63461;51.416;6.758;2023-07-13T19:41:28;20.50;99.90
74901;DHT22;63461;51.416;6.758;2023-07-13T19:43:56;20.40;99.90
74901;DHT22;63461;51.416;6.758;2023-07-13T19:46:35;20.40;99.90
74901;DHT22;63461;51.416;6.758;2023-07-13T19:49:04;20.40;99.90
74901;DHT22;63461;51.416;6.758;2023-07-13T19:51:34;20.40;99.90
74901;DHT22;63461;51.416;6.758;2023-07-13T19:54:17;20.40;99.90
74901;DHT22;63461;51.416;6.758;2023-07-13T19:56:44;20.40;99.90
74901;DHT22;63461;51.416;6.758;2023-07-13T19:59:26;20.40;99.90
74901;DHT22;63461;51.416;6.758;2023-07-13T20:01:53;20.40;99.90
74901;DHT22;63461;51.416;6.758;2023-07-13T20:04:19;20.30;99.90
74901;DHT22;63461;51.416;6.758;2023-07-13T20:06:57;20.30;99.90
74901;DHT22;63461;51.416;6.758;2023-07-13T20:09:24;20.30;99.90
74901;DHT22;63461;51.416;6.758;2023-07-13T20:11:51;20.30;99.90
74901;DHT22;63461;51.416;6.758;2023-07-13T20:14:22;20.20;99.90
74901;DHT22;63461;51.416;6.758;2023-07-13T20:16:56;20.20;99.90
74901;DHT22;63461;51.416;6.758;2023-07-13T20:19:24;20.20;99.90
74901;DHT22;63461;51.416;6.758;2023-07-13T20:21:50;20.20;99.90
74901;DHT22;63461;51.416;6.758;2023-07-13T20:24:19;20.20;99.90
74901;DHT22;63461;51.416;6.758;2023-07-13T20:26:46;20.20;99.90
74901;DHT22;63461;51.416;6.758;2023-07-13T20:29:16;20.20;99.90
74901;DHT22;63461;51.416;6.758;2023-07-13T20:31:44;20.20;99.90
74901;DHT22;63461;51.416;6.758;2023-07-13T20:34:24;20.20;99.90
74901;DHT22;63461;51.416;6.758;2023-07-13T20:36:51;20.10;99.90
74901;DHT22;63461;51.416;6.758;2023-07-13T20:39:19;20.10;99.90
74901;DHT22;63461;51.416;6.758;2023-07-13T20:41:48;20.10;99.90
74901;DHT22;63461;51.416;6.758;2023-07-13T20:44:14;20.10;99.90
74901;DHT22;63461;51.416;6.758;2023-07-13T20:46:43;20.10;99.90
74901;DHT22;63461;51.416;6.758;2023-07-13T20:49:10;20.10;99.90
74901;DHT22;63461;51.416;6.758;2023-07-13T20:51:37;20.00;99.90
74901;DHT22;63461;51.416;6.758;2023-07-13T20:54:04;20.00;99.90
74901;DHT22;63461;51.416;6.758;2023-07-13T20:56:30;19.90;99.90
74901;DHT22;63461;51.416;6.758;2023-07-13T20:58:56;19.90;99.90
74901;DHT22;63461;51.416;6.758;2023-07-13T21:01:30;19.90;99.90
74901;DHT22;63461;51.416;6.758;2023-07-13T21:04:00;19.90;99.90
74901;DHT22;63461;51.416;6.758;2023-07-13T21:06:27;20.00;99.90
74901;DHT22;63461;51.416;6.758;2023-07-13T21:08:55;19.90;99.90
74901;DHT22;63461;51.416;6.758;2023-07-13T21:11:21;19.90;99.90
74901;DHT22;63461;51.416;6.758;2023-07-13T21:13:47;19.80;99.90
74901;DHT22;63461;51.416;6.758;2023-07-13T21:16:21;19.80;99.90
74901;DHT22;63461;51.416;6.758;2023-07-13T21:18:48;19.70;99.90
74901;DHT22;63461;51.416;6.758;2023-07-13T21:21:16;19.70;99.90
74901;DHT22;63461;51.416;6.758;2023-07-13T21:23:43;19.60;99.90
74901;DHT22;63461;51.416;6.758;2023-07-13T21:26:09;19.60;99.90
74901;DHT22;63461;51.416;6.758;2023-07-13T21:28:38;19.50;99.90
74901;DHT22;63461;51.416;6.758;2023-07-13T21:31:07;19.50;99.90
74901;DHT22;63461;51.416;6.758;2023-07-13T21:33:34;19.30;99.90
74901;DHT22;63461;51.416;6.758;2023-07-13T21:36:02;19.40;99.90
74901;DHT22;63461;51.416;6.758;2023-07-13T21:38:37;19.40;99.90
74901;DHT22;63461;51.416;6.758;2023-07-13T21:41:25;19.30;99.90
74901;DHT22;63461;51.416;6.758;2023-07-13T21:43:51;19.30;99.90
74901;DHT22;63461;51.416;6.758;2023-07-13T21:46:17;19.20;99.90
74901;DHT22;63461;51.416;6.758;2023-07-13T21:48:43;19.20;99.90
74901;DHT22;63461;51.416;6.758;2023-07-13T21:51:19;19.20;99.90
74901;DHT22;63461;51.416;6.758;2023-07-13T21:53:47;19.10;99.90
74901;DHT22;63461;51.416;6.758;2023-07-13T21:56:13;19.10;99.90
74901;DHT22;63461;51.416;6.758;2023-07-13T21:58:39;19.00;99.90
74901;DHT22;63461;51.416;6.758;2023-07-13T22:01:17;19.00;99.90
74901;DHT22;63461;51.416;6.758;2023-07-13T22:03:45;19.00;99.90
74901;DHT22;63461;51.416;6.758;2023-07-13T22:06:27;19.10;99.90
74901;DHT22;63461;51.416;6.758;2023-07-13T22:08:53;19.00;99.90
74901;DHT22;63461;51.416;6.758;2023-07-13T22:11:22;18.90;99.90
74901;DHT22;63461;51.416;6.758;2023-07-13T22:13:49;18.90;99.90
74901;DHT22;63461;51.416;6.758;2023-07-13T22:16:20;18.90;99.90
74901;DHT22;63461;51.416;6.758;2023-07-13T22:18:47;18.80;99.90
74901;DHT22;63461;51.416;6.758;2023-07-13T22:21:14;18.80;99.90
74901;DHT22;63461;51.416;6.758;2023-07-13T22:23:40;18.90;99.90
74901;DHT22;63461;51.416;6.758;2023-07-13T22:26:22;18.90;99.90
74901;DHT22;63461;51.416;6.758;2023-07-13T22:28:59;18.90;99.90
74901;DHT22;63461;51.416;6.758;2023-07-13T22:31:27;18.80;99.90
74901;DHT22;63461;51.416;6.758;2023-07-13T22:33:57;18.70;99.90
74901;DHT22;63461;51.416;6.758;2023-07-13T22:36:23;18.80;99.90
74901;DHT22;63461;51.416;6.758;2023-07-13T22:38:49;18.70;99.90
74901;DHT22;63461;51.416;6.758;2023-07-13T22:41:16;18.70;99.90
74901;DHT22;63461;51.416;6.758;2023-07-13T22:43:44;18.80;99.90
74901;DHT22;63461;51.416;6.758;2023-07-13T22:46:18;18.70;99.90
74901;DHT22;63461;51.416;6.758;2023-07-13T22:48:54;18.70;99.90
74901;DHT22;63461;51.416;6.758;2023-07-13T22:51:21;18.70;99.90
74901;DHT22;63461;51.416;6.758;2023-07-13T22:53:47;18.60;99.90
74901;DHT22;63461;51.416;6.758;2023-07-13T22:56:13;18.70;99.90
74901;DHT22;63461;51.416;6.758;2023-07-13T22:58:39;18.60;99.90
74901;DHT22;63461;51.416;6.758;2023-07-13T23:01:22;18.60;99.90